createdAt,value
2023-02-26T14:57:52.963Z,60.53
2023-02-26T15:00:36.999Z,61.04
2023-02-26T15:16:23.857Z,61.01
2023-02-26T15:19:17.359Z,61.22
2023-02-26T15:22:07.941Z,61.22
2023-02-26T15:27:36.893Z,61.93
2023-02-26T15:30:16.206Z,62.09
2023-02-26T15:32:53.708Z,62.40
2023-02-26T15:43:32.120Z,63.17
2023-02-26T15:46:05.323Z,63.22
2023-02-26T15:48:42.515Z,63.43
2023-02-26T15:51:15.087Z,63.64
2023-02-26T15:53:47.784Z,63.67
2023-02-26T15:56:22.221Z,63.87
2023-02-26T15:58:54.715Z,63.93
2023-02-26T16:01:25.423Z,64.11
2023-02-26T16:03:57.929Z,64.26
2023-02-26T16:06:37.870Z,64.39
2023-02-26T16:09:09.413Z,64.50
2023-02-26T16:11:40.420Z,64.72
2023-02-26T16:14:22.257Z,64.82
2023-02-26T16:16:54.056Z,64.99
2023-02-26T16:19:39.185Z,65.08
2023-02-26T16:22:24.425Z,65.21
2023-02-26T16:25:00.674Z,65.30
2023-02-26T16:27:51.391Z,65.44
2023-02-26T16:30:23.281Z,65.56
2023-02-26T16:32:54.092Z,65.75
2023-02-26T16:35:24.680Z,65.93
2023-02-26T16:37:55.330Z,65.85
2023-02-26T16:40:25.537Z,65.99
2023-02-26T16:43:07.541Z,66.07
2023-02-26T16:45:52.281Z,66.11
2023-02-26T16:49:01.089Z,66.24
2023-02-26T16:51:41.817Z,66.45
2023-02-26T16:54:45.858Z,66.56
2023-02-26T16:57:28.977Z,66.74
2023-02-26T17:00:17.916Z,66.88
2023-02-26T17:02:49.886Z,67.10
2023-02-26T17:05:29.888Z,66.98
2023-02-26T17:08:38.686Z,67.13
2023-02-26T17:11:33.895Z,67.39
2023-02-26T17:14:24.291Z,67.73
2023-02-26T17:16:58.185Z,67.86
2023-02-26T17:19:39.816Z,68.07
2023-02-26T17:22:15.020Z,68.03
2023-02-26T17:24:49.467Z,68.30
2023-02-26T17:27:29.897Z,68.28
2023-02-26T17:30:00.209Z,68.52
2023-02-26T17:32:31.927Z,68.57
2023-02-26T17:35:08.831Z,68.70
2023-02-26T17:37:40.323Z,68.89
2023-02-26T17:40:25.964Z,68.80
2023-02-26T17:42:57.610Z,68.85
2023-02-26T17:45:30.475Z,69.03
2023-02-26T17:48:04.826Z,69.16
2023-02-26T17:50:49.591Z,69.00
2023-02-26T17:53:27.673Z,69.25
2023-02-26T17:55:58.214Z,69.32
2023-02-26T17:58:34.238Z,69.29
2023-02-26T18:01:04.280Z,69.40
2023-02-26T18:03:33.227Z,69.42
2023-02-26T18:06:01.765Z,69.51
2023-02-26T18:08:34.508Z,69.52
2023-02-26T18:11:06.666Z,69.77
2023-02-26T18:13:37.130Z,69.82
2023-02-26T18:16:12.963Z,69.80
2023-02-26T18:18:47.568Z,69.93
2023-02-26T18:21:17.187Z,70.14
2023-02-26T18:23:49.242Z,70.35
2023-02-26T18:26:23.121Z,70.39
2023-02-26T18:28:57.550Z,70.60
2023-02-26T18:31:35.008Z,70.63
2023-02-26T18:34:13.885Z,70.87
2023-02-26T18:36:45.500Z,70.88
2023-02-26T18:39:20.634Z,71.07
2023-02-26T18:41:50.120Z,71.08
2023-02-26T18:44:20.342Z,71.42
2023-02-26T18:46:51.109Z,71.29
2023-02-26T18:49:20.249Z,71.47
2023-02-26T18:51:50.366Z,71.70
2023-02-26T18:54:20.050Z,71.63
2023-02-26T18:56:50.108Z,71.82
2023-02-26T18:59:19.726Z,72.01
2023-02-26T19:01:52.019Z,71.98
2023-02-26T19:04:26.480Z,72.19
2023-02-26T19:06:56.634Z,72.21
2023-02-26T19:09:29.549Z,72.34
2023-02-26T19:11:59.320Z,72.44
2023-02-26T19:14:32.623Z,72.43
2023-02-26T19:17:01.550Z,72.34
2023-02-26T19:19:33.191Z,72.48
2023-02-26T19:22:03.284Z,72.68
2023-02-26T19:24:38.356Z,72.72
2023-02-26T19:27:08.078Z,72.76
2023-02-26T19:29:37.343Z,72.92
2023-02-26T19:32:07.182Z,72.85
2023-02-26T19:34:36.207Z,73.06
2023-02-26T19:37:10.797Z,73.22
2023-02-26T19:39:39.867Z,73.40
2023-02-26T19:42:11.906Z,73.34
2023-02-26T19:44:44.769Z,73.38
2023-02-26T19:47:14.691Z,73.50
2023-02-26T19:49:44.730Z,73.41
2023-02-26T19:52:20.211Z,73.76
2023-02-26T19:54:51.433Z,73.91
2023-02-26T19:57:22.484Z,73.77
2023-02-26T19:59:55.284Z,74.00
2023-02-26T20:02:32.472Z,73.88
2023-02-26T20:05:17.175Z,74.17
2023-02-26T20:07:50.126Z,74.36
2023-02-26T20:10:26.474Z,74.46
2023-02-26T20:13:00.282Z,74.52
2023-02-26T20:15:31.550Z,74.50
2023-02-26T20:18:05.691Z,74.71
2023-02-26T20:20:43.936Z,74.92
2023-02-26T20:23:15.999Z,74.87
2023-02-26T20:25:45.384Z,74.98
2023-02-26T20:28:20.056Z,74.97
2023-02-26T20:30:50.876Z,75.14
2023-02-26T20:33:21.420Z,75.43
2023-02-26T20:35:50.253Z,75.52
2023-02-26T20:38:19.509Z,75.57
2023-02-26T20:40:48.547Z,75.70
2023-02-26T20:43:20.219Z,76.13
2023-02-26T20:45:49.875Z,75.83
2023-02-26T20:48:24.802Z,75.99
2023-02-26T20:51:02.065Z,75.93
2023-02-26T20:53:31.570Z,76.17
2023-02-26T20:56:00.999Z,76.18
2023-02-26T20:58:30.202Z,76.37
2023-02-26T21:00:58.576Z,76.49
2023-02-26T21:03:31.919Z,76.47
2023-02-26T21:06:03.737Z,76.72
2023-02-26T21:11:26.145Z,76.82
2023-02-26T21:13:55.488Z,76.78
2023-02-26T21:16:25.861Z,76.97
2023-02-26T21:18:56.836Z,77.07
2023-02-26T21:21:27.832Z,77.27
2023-02-26T21:23:57.653Z,77.28
2023-02-26T21:26:28.336Z,77.61
2023-02-26T21:28:57.078Z,77.61
2023-02-26T21:31:28.902Z,77.72
2023-02-26T21:34:30.277Z,78.00
2023-02-26T21:36:59.679Z,78.31
2023-02-26T21:39:33.391Z,78.52
2023-02-26T21:42:04.547Z,78.54
2023-02-26T21:44:35.685Z,78.67
2023-02-26T21:47:05.595Z,78.90
2023-02-26T21:52:43.607Z,79.71
2023-02-26T21:55:14.233Z,79.96
2023-02-26T21:57:43.668Z,80.41
2023-02-26T22:00:13.526Z,80.65
2023-02-26T22:02:47.580Z,81.18
2023-02-26T22:05:16.782Z,81.33
2023-02-26T22:07:52.648Z,81.47
2023-02-26T22:10:24.905Z,81.77
2023-02-26T22:12:53.949Z,81.93
2023-02-26T22:15:31.777Z,82.05
2023-02-26T22:18:06.821Z,82.16
2023-02-26T22:20:39.434Z,82.14
2023-02-26T22:23:32.141Z,82.43
2023-02-26T22:26:07.221Z,82.43
2023-02-26T22:28:42.180Z,82.76
2023-02-26T22:31:17.128Z,82.93
2023-02-26T22:33:47.770Z,82.63
2023-02-26T22:36:17.913Z,82.44
2023-02-26T22:39:05.258Z,82.58
2023-02-26T22:41:38.882Z,82.46
2023-02-26T22:44:07.994Z,82.09
2023-02-26T22:46:39.544Z,82.34
2023-02-26T22:49:09.812Z,81.92
2023-02-26T22:51:44.217Z,82.27
2023-02-26T22:54:13.618Z,82.31
2023-02-26T22:56:45.591Z,82.12
2023-02-26T22:59:16.868Z,82.30
2023-02-26T23:01:46.829Z,82.17
2023-02-26T23:04:17.602Z,81.93
2023-02-26T23:06:50.071Z,82.25
2023-02-26T23:09:19.074Z,82.31
2023-02-26T23:11:49.136Z,82.22
2023-02-26T23:14:24.472Z,82.08
2023-02-26T23:16:53.161Z,82.04
2023-02-26T23:19:22.935Z,82.15
2023-02-26T23:21:51.858Z,82.09
2023-02-26T23:24:23.847Z,81.87
2023-02-26T23:27:03.438Z,81.80
2023-02-26T23:29:35.788Z,81.37
2023-02-26T23:32:06.692Z,81.00
2023-02-26T23:34:40.412Z,80.99
2023-02-26T23:37:10.360Z,80.69
2023-02-26T23:39:42.525Z,80.41
2023-02-26T23:42:10.879Z,80.23
2023-02-26T23:44:39.207Z,80.05
2023-02-26T23:47:07.793Z,79.89
2023-02-26T23:49:39.525Z,79.74
2023-02-26T23:52:08.892Z,79.29
2023-02-26T23:54:39.847Z,78.71
2023-02-26T23:57:08.525Z,78.65
2023-02-26T23:59:37.207Z,78.56
